| time (UTC) | temp C | wind direction | speed KPH | gust KPH | rain 1hr cm | rain 24hr cm | rain mn cm | humidity % | barometer mb |
| 20260505153017 | 15 | 180 | 8.0 | 17.7 | 0.00 | 1.52 | 1.52 | 100 | 1007.1 |
| 20260505152517 | 15 | 203 | 6.4 | 16.1 | 0.00 | 1.52 | 1.52 | 100 | 1007.2 |
| 20260505152017 | 15 | 203 | 6.4 | 12.9 | 0.00 | 1.52 | 1.52 | 100 | 1007.2 |
| 20260505151518 | 15 | 203 | 8.0 | 14.5 | 0.00 | 1.52 | 1.52 | 100 | 1007.2 |
| 20260505151017 | 15 | 203 | 8.0 | 17.7 | 0.00 | 1.52 | 1.52 | 100 | 1007.3 |
| 20260505150517 | 15 | 180 | 6.4 | 11.3 | 0.00 | 1.52 | 1.52 | 100 | 1007.3 |
| 20260505140537 | 14 | 180 | 9.7 | 17.7 | 0.00 | 1.52 | 1.52 | 100 | 1007.2 |
| 20260505125017 | 13 | 203 | 8.0 | 12.9 | 0.00 | 1.52 | 1.52 | 99 | 1007.2 |
| 20260505124517 | 13 | 203 | 8.0 | 17.7 | 0.00 | 1.52 | 1.52 | 99 | 1007.2 |
| 20260505124017 | 13 | 180 | 6.4 | 12.9 | 0.00 | 1.52 | 1.52 | 99 | 1007.2 |
| 20260505123517 | 13 | 203 | 6.4 | 12.9 | 0.00 | 1.52 | 1.52 | 99 | 1007.4 |
| 20260505123017 | 13 | 180 | 6.4 | 16.1 | 0.00 | 1.52 | 1.52 | 99 | 1007.3 |
| 20260505122517 | 13 | 203 | 4.8 | 14.5 | 0.00 | 1.52 | 1.52 | 99 | 1007.4 |
| 20260505122037 | 13 | 203 | 3.2 | 9.7 | 0.00 | 1.52 | 1.52 | 99 | 1007.3 |
| 20260505121537 | 13 | 180 | 3.2 | 9.7 | 0.00 | 1.52 | 1.52 | 99 | 1007.5 |
| 20260505121017 | 13 | 203 | 3.2 | 9.7 | 0.00 | 1.52 | 1.52 | 99 | 1007.6 |
| 20260505120517 | 13 | 180 | 3.2 | 11.3 | 0.00 | 1.52 | 1.52 | 99 | 1007.5 |
| 20260505120017 | 13 | 180 | 3.2 | 8.0 | 0.00 | 1.52 | 1.52 | 99 | 1007.5 |
| 20260505115518 | 13 | 0.0 | 1.6 | 0.00 | 1.52 | 1.52 | 99 | 1007.9 | |
| 20260505115017 | 13 | 0.0 | 0.0 | 0.00 | 1.52 | 1.52 | 99 | 1007.8 | |
| 20260505114537 | 13 | 0.0 | 0.0 | 0.00 | 1.52 | 1.52 | 99 | 1007.7 | |
| 20260505114017 | 13 | 0.0 | 0.0 | 0.00 | 1.52 | 1.52 | 99 | 1007.9 | |
| 20260505113537 | 13 | 0.0 | 0.0 | 0.00 | 1.52 | 1.52 | 99 | 1008.0 | |
| 20260505113017 | 13 | 0.0 | 1.6 | 0.03 | 1.52 | 1.52 | 99 | 1008.2 | |
| 20260505112517 | 13 | 0.0 | 0.0 | 0.03 | 1.52 | 1.52 | 99 | 1008.0 | |
| 20260505112017 | 13 | 0.0 | 0.0 | 0.03 | 1.52 | 1.52 | 99 | 1007.9 | |
| 20260505111517 | 13 | 0.0 | 0.0 | 0.03 | 1.52 | 1.52 | 99 | 1008.0 | |
| 20260505111017 | 13 | 0.0 | 1.6 | 0.03 | 1.52 | 1.52 | 99 | 1007.8 | |
| 20260505110517 | 13 | 0.0 | 0.0 | 0.03 | 1.52 | 1.52 | 99 | 1008.1 | |
| 20260505102017 | 13 | 0.0 | 1.6 | 0.20 | 1.50 | 1.50 | 98 | 1007.0 | |
| 20260505101517 | 13 | 0.0 | 1.6 | 0.56 | 1.50 | 1.50 | 98 | 1007.6 | |
| 20260505101037 | 13 | 135 | 1.6 | 3.2 | 0.79 | 1.50 | 1.50 | 98 | 1008.4 |
| 20260505100537 | 13 | 0.0 | 0.0 | 0.99 | 1.50 | 1.50 | 98 | 1008.1 | |
| 20260505100017 | 13 | 135 | 1.6 | 3.2 | 1.09 | 1.47 | 1.47 | 98 | 1007.9 |
| 20260505095517 | 13 | 0.0 | 1.6 | 1.07 | 1.45 | 1.45 | 98 | 1007.9 | |
| 20260505095017 | 13 | 0.0 | 0.0 | 1.09 | 1.45 | 1.45 | 98 | 1008.3 | |
| 20260505094537 | 13 | 0.0 | 1.6 | 1.14 | 1.45 | 1.45 | 98 | 1007.5 | |
| 20260505094017 | 13 | 0.0 | 0.0 | 1.14 | 1.42 | 1.42 | 98 | 1007.3 | |
| 20260505093537 | 13 | 0.0 | 1.6 | 1.12 | 1.40 | 1.40 | 98 | 1007.6 | |
| 20260505093017 | 13 | 0.0 | 3.2 | 1.14 | 1.37 | 1.37 | 97 | 1008.1 | |
| 20260505092517 | 13 | 0.0 | 3.2 | 1.14 | 1.35 | 1.35 | 97 | 1007.2 | |
| 20260505092037 | 13 | 338 | 1.6 | 4.8 | 1.14 | 1.30 | 1.30 | 97 | 1008.2 |
| 20260505091517 | 13 | 23 | 3.2 | 8.0 | 0.81 | 0.94 | 0.94 | 97 | 1009.3 |
| 20260505091017 | 13 | 293 | 1.6 | 6.4 | 0.64 | 0.71 | 0.71 | 97 | 1009.3 |
| 20260505090557 | 13 | 315 | 3.2 | 9.7 | 0.43 | 0.51 | 0.51 | 97 | 1008.4 |
| 20260505090017 | 13 | 315 | 3.2 | 12.9 | 0.33 | 0.38 | 0.38 | 96 | 1007.5 |
| 20260505085537 | 13 | 180 | 8.0 | 14.5 | 0.36 | 0.38 | 0.38 | 96 | 1005.2 |
| 20260505085017 | 13 | 203 | 6.4 | 14.5 | 0.36 | 0.36 | 0.36 | 95 | 1006.0 |
| 20260505084517 | 13 | 180 | 12.9 | 22.5 | 0.30 | 0.30 | 0.30 | 95 | 1005.8 |
| 20260505084037 | 13 | 203 | 8.0 | 17.7 | 0.28 | 0.28 | 0.28 | 94 | 1006.8 |
| 20260505083537 | 13 | 180 | 9.7 | 17.7 | 0.28 | 0.28 | 0.25 | 94 | 1006.2 |
| 20260505083017 | 14 | 203 | 9.7 | 17.7 | 0.23 | 0.23 | 0.23 | 93 | 1006.9 |
| 20260505082517 | 14 | 180 | 11.3 | 24.1 | 0.20 | 0.20 | 0.20 | 93 | 1006.9 |
| 20260505082017 | 14 | 180 | 9.7 | 20.9 | 0.15 | 0.15 | 0.15 | 92 | 1007.1 |
| 20260505081517 | 14 | 180 | 6.4 | 20.9 | 0.13 | 0.13 | 0.13 | 92 | 1007.4 |
| 20260505081016 | 14 | 180 | 6.4 | 17.7 | 0.08 | 0.08 | 0.08 | 91 | 1007.4 |
| 20260505080517 | 15 | 203 | 11.3 | 24.1 | 0.08 | 0.08 | 0.08 | 91 | 1007.4 |
| 20260505080017 | 15 | 203 | 11.3 | 24.1 | 0.05 | 0.05 | 0.05 | 90 | 1007.3 |
| 20260505075537 | 15 | 203 | 12.9 | 27.4 | 0.03 | 0.03 | 0.03 | 88 | 1006.9 |
| 20260505075017 | 15 | 180 | 12.9 | 25.7 | 0.00 | 0.00 | 0.00 | 86 | 1006.5 |
| 20260505074557 | 16 | 180 | 12.9 | 24.1 | 0.00 | 0.00 | 0.00 | 85 | 1006.4 |
| 20260505074016 | 16 | 203 | 16.1 | 33.8 | 0.00 | 0.00 | 0.00 | 82 | 1006.8 |
| 20260505073516 | 16 | 203 | 14.5 | 33.8 | 0.00 | 0.00 | 0.00 | 80 | 1006.8 |
| 20260505073017 | 16 | 180 | 14.5 | 30.6 | 0.00 | 0.00 | 0.00 | 77 | 1006.9 |
| 20260505072517 | 16 | 203 | 11.3 | 22.5 | 0.00 | 0.00 | 0.00 | 78 | 1006.9 |
| 20260505072017 | 16 | 180 | 11.3 | 20.9 | 0.00 | 0.00 | 0.00 | 77 | 1007.2 |
| 20260505071516 | 16 | 203 | 9.7 | 20.9 | 0.00 | 0.00 | 0.00 | 77 | 1007.5 |
| 20260505071016 | 16 | 180 | 11.3 | 24.1 | 0.00 | 0.00 | 0.00 | 77 | 1007.6 |
| 20260505070057 | 16 | 180 | 11.3 | 24.1 | 0.00 | 0.00 | 0.00 | 77 | 1007.7 |
| 20260505065537 | 16 | 203 | 12.9 | 29.0 | 0.00 | 0.00 | 0.00 | 77 | 1007.7 |
| 20260505065016 | 16 | 203 | 9.7 | 24.1 | 0.00 | 0.00 | 0.00 | 78 | 1007.8 |
| 20260505064536 | 16 | 203 | 11.3 | 32.2 | 0.00 | 0.00 | 0.00 | 78 | 1008.0 |
| 20260505064016 | 16 | 203 | 9.7 | 20.9 | 0.00 | 0.00 | 0.00 | 77 | 1008.0 |
| 20260505063517 | 16 | 203 | 11.3 | 25.7 | 0.00 | 0.00 | 0.00 | 77 | 1008.2 |
| 20260505063016 | 16 | 203 | 14.5 | 32.2 | 0.00 | 0.00 | 0.00 | 77 | 1008.0 |
| 20260505062517 | 16 | 180 | 12.9 | 27.4 | 0.00 | 0.00 | 0.00 | 77 | 1008.0 |
| 20260505062016 | 16 | 203 | 12.9 | 35.4 | 0.00 | 0.00 | 0.00 | 77 | 1008.1 |
| 20260505061516 | 16 | 180 | 12.9 | 29.0 | 0.00 | 0.00 | 0.00 | 78 | 1008.0 |
| 20260505061016 | 16 | 203 | 12.9 | 32.2 | 0.00 | 0.00 | 0.00 | 78 | 1008.2 |
| 20260505060517 | 16 | 180 | 9.7 | 17.7 | 0.00 | 0.00 | 0.00 | 78 | 1008.4 |
| 20260505060016 | 16 | 180 | 12.9 | 35.4 | 0.00 | 0.00 | 0.00 | 78 | 1008.3 |
| 20260505055517 | 16 | 203 | 12.9 | 35.4 | 0.00 | 0.00 | 0.00 | 78 | 1008.1 |
| 20260505055016 | 16 | 180 | 12.9 | 25.7 | 0.00 | 0.00 | 0.00 | 78 | 1008.2 |
| 20260505054516 | 16 | 180 | 12.9 | 25.7 | 0.00 | 0.00 | 0.00 | 78 | 1008.1 |
| 20260505054037 | 16 | 180 | 12.9 | 33.8 | 0.00 | 0.00 | 0.00 | 78 | 1008.1 |
| 20260505053517 | 16 | 180 | 9.7 | 30.6 | 0.00 | 0.00 | 0.00 | 78 | 1008.2 |
| 20260505053037 | 16 | 203 | 12.9 | 29.0 | 0.00 | 0.00 | 0.00 | 77 | 1008.2 |
| 20260505052536 | 16 | 203 | 11.3 | 22.5 | 0.00 | 0.00 | 0.00 | 77 | 1008.4 |
| 20260505052016 | 16 | 180 | 12.9 | 25.7 | 0.00 | 0.00 | 0.00 | 77 | 1008.6 |
| 20260505051516 | 16 | 180 | 11.3 | 24.1 | 0.00 | 0.00 | 0.00 | 77 | 1008.8 |
| 20260505051016 | 16 | 180 | 11.3 | 25.7 | 0.00 | 0.00 | 0.00 | 77 | 1008.7 |
| 20260505050537 | 16 | 180 | 12.9 | 24.1 | 0.00 | 0.00 | 0.00 | 77 | 1008.7 |
| 20260505041536 | 17 | 203 | 9.7 | 14.5 | 0.00 | 0.00 | 0.00 | 77 | 1008.9 |
| 20260505041016 | 17 | 180 | 9.7 | 19.3 | 0.00 | 0.00 | 0.00 | 77 | 1009.1 |
| 20260505040516 | 17 | 180 | 9.7 | 20.9 | 0.00 | 0.00 | 0.00 | 77 | 1009.3 |
| 20260505040016 | 17 | 203 | 8.0 | 16.1 | 0.00 | 0.00 | 0.00 | 77 | 1009.4 |
| 20260505035516 | 17 | 180 | 11.3 | 22.5 | 0.00 | 0.00 | 0.00 | 77 | 1009.3 |
| 20260505035016 | 17 | 180 | 8.0 | 14.5 | 0.00 | 0.00 | 0.00 | 77 | 1009.3 |
| 20260505034516 | 17 | 203 | 8.0 | 19.3 | 0.00 | 0.00 | 0.00 | 77 | 1009.3 |
| 20260505034017 | 17 | 203 | 9.7 | 20.9 | 0.00 | 0.00 | 0.00 | 77 | 1009.4 |
| 20260505033516 | 17 | 203 | 6.4 | 12.9 | 0.00 | 0.00 | 0.00 | 77 | 1009.3 |
| 20260505033016 | 17 | 180 | 9.7 | 16.1 | 0.00 | 0.00 | 0.00 | 77 | 1009.2 |
| 20260505032516 | 17 | 180 | 9.7 | 20.9 | 0.00 | 0.00 | 0.00 | 77 | 1009.3 |
| 20260505032017 | 17 | 180 | 11.3 | 24.1 | 0.00 | 0.00 | 0.00 | 77 | 1009.3 |
| 20260505031516 | 17 | 203 | 8.0 | 19.3 | 0.00 | 0.00 | 0.00 | 77 | 1009.1 |
| 20260505031016 | 17 | 180 | 11.3 | 20.9 | 0.00 | 0.00 | 0.00 | 77 | 1009.0 |
| 20260505030516 | 17 | 180 | 9.7 | 19.3 | 0.00 | 0.00 | 0.00 | 76 | 1008.9 |
| 20260505030016 | 17 | 158 | 11.3 | 24.1 | 0.00 | 0.00 | 0.00 | 76 | 1008.8 |
| 20260505025516 | 17 | 203 | 9.7 | 22.5 | 0.00 | 0.00 | 0.00 | 76 | 1008.8 |
| 20260505025022 | 17 | 203 | 11.3 | 35.4 | 0.00 | 0.00 | 0.00 | 76 | 1008.8 |
| 20260505024516 | 17 | 180 | 8.0 | 22.5 | 0.00 | 0.00 | 0.00 | 76 | 1008.5 |
| 20260505024016 | 17 | 203 | 9.7 | 19.3 | 0.00 | 0.00 | 0.00 | 75 | 1008.6 |
| 20260505023516 | 17 | 203 | 9.7 | 30.6 | 0.00 | 0.00 | 0.00 | 75 | 1008.4 |
| 20260505023016 | 17 | 203 | 9.7 | 24.1 | 0.00 | 0.00 | 0.00 | 75 | 1008.3 |
| 20260505022516 | 17 | 180 | 11.3 | 29.0 | 0.00 | 0.00 | 0.00 | 75 | 1008.3 |
| 20260505022016 | 17 | 180 | 11.3 | 30.6 | 0.00 | 0.00 | 0.00 | 75 | 1008.3 |
| 20260505021516 | 17 | 180 | 11.3 | 25.7 | 0.00 | 0.00 | 0.00 | 75 | 1008.1 |
| 20260505021016 | 17 | 203 | 11.3 | 33.8 | 0.00 | 0.00 | 0.00 | 74 | 1007.9 |
| 20260505020516 | 17 | 180 | 11.3 | 24.1 | 0.00 | 0.00 | 0.00 | 74 | 1007.9 |
| 20260505020016 | 17 | 203 | 11.3 | 24.1 | 0.00 | 0.00 | 0.00 | 74 | 1007.9 |
| 20260505015517 | 17 | 203 | 9.7 | 17.7 | 0.00 | 0.00 | 0.00 | 74 | 1008.0 |
| 20260505015037 | 17 | 180 | 9.7 | 19.3 | 0.00 | 0.00 | 0.00 | 74 | 1008.0 |
| 20260505014516 | 17 | 180 | 12.9 | 27.4 | 0.00 | 0.00 | 0.00 | 74 | 1007.9 |
| 20260505014016 | 17 | 203 | 11.3 | 19.3 | 0.00 | 0.00 | 0.00 | 74 | 1008.1 |
| 20260505013516 | 17 | 203 | 9.7 | 20.9 | 0.00 | 0.00 | 0.00 | 74 | 1008.0 |
| 20260505013016 | 17 | 203 | 9.7 | 25.7 | 0.00 | 0.00 | 0.00 | 73 | 1008.0 |
| 20260505012517 | 17 | 158 | 12.9 | 25.7 | 0.00 | 0.00 | 0.00 | 73 | 1007.8 |
| 20260505012016 | 17 | 203 | 9.7 | 19.3 | 0.00 | 0.00 | 0.00 | 73 | 1007.9 |
| 20260505011517 | 17 | 180 | 11.3 | 22.5 | 0.00 | 0.00 | 0.00 | 73 | 1007.9 |
| 20260505011016 | 18 | 180 | 8.0 | 17.7 | 0.00 | 0.00 | 0.00 | 73 | 1007.9 |
| 20260505010516 | 18 | 203 | 9.7 | 20.9 | 0.00 | 0.00 | 0.00 | 73 | 1007.9 |
| 20260505010016 | 18 | 180 | 9.7 | 22.5 | 0.00 | 0.00 | 0.00 | 72 | 1007.8 |
| 20260505005516 | 18 | 203 | 9.7 | 32.2 | 0.00 | 0.00 | 0.00 | 72 | 1007.8 |
| 20260505005016 | 18 | 203 | 12.9 | 27.4 | 0.00 | 0.00 | 0.00 | 72 | 1007.5 |
| 20260505004516 | 18 | 203 | 9.7 | 24.1 | 0.00 | 0.00 | 0.00 | 72 | 1007.5 |
| 20260505004016 | 18 | 203 | 9.7 | 19.3 | 0.00 | 0.00 | 0.00 | 71 | 1007.7 |
| 20260505003516 | 18 | 203 | 11.3 | 29.0 | 0.00 | 0.00 | 0.00 | 71 | 1007.7 |
| 20260505003016 | 18 | 203 | 12.9 | 24.1 | 0.00 | 0.00 | 0.00 | 71 | 1007.8 |
| 20260505002536 | 18 | 203 | 12.9 | 29.0 | 0.00 | 0.00 | 0.00 | 70 | 1007.7 |
| 20260505002016 | 18 | 180 | 12.9 | 24.1 | 0.00 | 0.00 | 0.00 | 70 | 1007.7 |
| 20260505001516 | 19 | 180 | 11.3 | 30.6 | 0.00 | 0.00 | 0.00 | 69 | 1007.8 |
| 20260505001036 | 19 | 203 | 9.7 | 20.9 | 0.00 | 0.00 | 0.00 | 69 | 1007.9 |
| 20260505000516 | 19 | 180 | 12.9 | 20.9 | 0.00 | 0.00 | 0.00 | 68 | 1007.9 |
| 20260505000016 | 20 | 180 | 8.0 | 16.1 | 0.00 | 0.00 | 0.00 | 68 | 1007.9 |
| 20260504235516 | 20 | 203 | 11.3 | 24.1 | 0.00 | 0.00 | 0.00 | 67 | 1007.7 |
| 20260504235016 | 20 | 203 | 11.3 | 24.1 | 0.00 | 0.00 | 0.00 | 66 | 1007.7 |
| 20260504234536 | 20 | 180 | 11.3 | 22.5 | 0.00 | 0.00 | 0.00 | 66 | 1007.9 |
| 20260504234036 | 20 | 203 | 8.0 | 20.9 | 0.00 | 0.00 | 0.00 | 67 | 1008.1 |
| 20260504233516 | 20 | 180 | 11.3 | 24.1 | 0.00 | 0.00 | 0.00 | 65 | 1008.1 |
| 20260504233016 | 20 | 203 | 9.7 | 24.1 | 0.00 | 0.00 | 0.00 | 65 | 1008.0 |
| 20260504232556 | 21 | 203 | 11.3 | 25.7 | 0.00 | 0.00 | 0.00 | 64 | 1008.1 |
| 20260504232016 | 21 | 203 | 11.3 | 24.1 | 0.00 | 0.00 | 0.00 | 65 | 1008.4 |
| 20260504231516 | 21 | 203 | 9.7 | 19.3 | 0.00 | 0.00 | 0.00 | 65 | 1008.6 |
| 20260504231016 | 21 | 203 | 9.7 | 25.7 | 0.00 | 0.00 | 0.00 | 66 | 1008.6 |
| 20260504230516 | 21 | 180 | 8.0 | 17.7 | 0.00 | 0.00 | 0.00 | 64 | 1008.7 |
| 20260504230016 | 21 | 203 | 8.0 | 17.7 | 0.00 | 0.00 | 0.00 | 65 | 1008.9 |
| 20260504225536 | 21 | 203 | 8.0 | 16.1 | 0.00 | 0.00 | 0.00 | 65 | 1008.9 |
| 20260504225016 | 21 | 180 | 9.7 | 24.1 | 0.00 | 0.00 | 0.00 | 64 | 1008.9 |
| 20260504224516 | 21 | 203 | 9.7 | 22.5 | 0.00 | 0.00 | 0.00 | 63 | 1008.9 |
| 20260504224016 | 21 | 158 | 14.5 | 30.6 | 0.00 | 0.00 | 0.00 | 63 | 1009.0 |
| 20260504223516 | 21 | 180 | 9.7 | 19.3 | 0.00 | 0.00 | 0.00 | 63 | 1009.2 |
| 20260504223016 | 21 | 203 | 8.0 | 16.1 | 0.00 | 0.00 | 0.00 | 63 | 1009.2 |
| 20260504222516 | 21 | 180 | 9.7 | 22.5 | 0.00 | 0.00 | 0.00 | 63 | 1009.1 |
| 20260504222016 | 21 | 203 | 11.3 | 24.1 | 0.00 | 0.00 | 0.00 | 63 | 1009.2 |
| 20260504221516 | 22 | 180 | 12.9 | 25.7 | 0.00 | 0.00 | 0.00 | 61 | 1009.3 |
| 20260504221016 | 22 | 180 | 9.7 | 24.1 | 0.00 | 0.00 | 0.00 | 62 | 1009.4 |
| 20260504220516 | 22 | 180 | 6.4 | 14.5 | 0.00 | 0.00 | 0.00 | 61 | 1009.4 |
| 20260504220016 | 22 | 203 | 8.0 | 16.1 | 0.00 | 0.00 | 0.00 | 62 | 1009.4 |
| 20260504215536 | 22 | 180 | 8.0 | 19.3 | 0.00 | 0.00 | 0.00 | 61 | 1009.4 |
| 20260504215016 | 22 | 180 | 9.7 | 19.3 | 0.00 | 0.00 | 0.00 | 62 | 1009.4 |
| 20260504214516 | 22 | 158 | 8.0 | 19.3 | 0.00 | 0.00 | 0.00 | 62 | 1009.6 |
| 20260504214016 | 22 | 203 | 9.7 | 20.9 | 0.00 | 0.00 | 0.00 | 61 | 1009.4 |
| 20260504213516 | 22 | 180 | 12.9 | 30.6 | 0.00 | 0.00 | 0.00 | 60 | 1009.5 |
| 20260504213016 | 22 | 180 | 11.3 | 27.4 | 0.00 | 0.00 | 0.00 | 60 | 1009.6 |
| 20260504212516 | 22 | 203 | 9.7 | 24.1 | 0.00 | 0.00 | 0.00 | 60 | 1009.6 |
| 20260504212016 | 22 | 203 | 11.3 | 29.0 | 0.00 | 0.00 | 0.00 | 58 | 1009.8 |
| 20260504211516 | 22 | 180 | 9.7 | 20.9 | 0.00 | 0.00 | 0.00 | 59 | 1009.8 |
| 20260504211016 | 22 | 203 | 9.7 | 22.5 | 0.00 | 0.00 | 0.00 | 59 | 1009.9 |
| 20260504210516 | 22 | 203 | 9.7 | 22.5 | 0.00 | 0.00 | 0.00 | 58 | 1009.9 |
| 20260504210016 | 22 | 225 | 9.7 | 22.5 | 0.00 | 0.00 | 0.00 | 57 | 1009.8 |
| 20260504205516 | 22 | 203 | 9.7 | 22.5 | 0.00 | 0.00 | 0.00 | 58 | 1009.9 |
| 20260504205016 | 22 | 180 | 12.9 | 41.8 | 0.00 | 0.00 | 0.00 | 57 | 1009.9 |
| 20260504203538 | 23 | 203 | 9.7 | 22.5 | 0.00 | 0.00 | 0.00 | 58 | 1010.1 |
| 20260504203038 | 22 | 203 | 11.3 | 29.0 | 0.00 | 0.00 | 0.00 | 59 | 1010.3 |
| 20260504202517 | 22 | 203 | 11.3 | 25.7 | 0.00 | 0.00 | 0.00 | 57 | 1010.2 |
| 20260504202017 | 22 | 203 | 11.3 | 27.4 | 0.00 | 0.00 | 0.00 | 57 | 1010.3 |
| 20260504201518 | 22 | 203 | 12.9 | 30.6 | 0.00 | 0.00 | 0.00 | 57 | 1010.5 |
| 20260504201017 | 22 | 203 | 9.7 | 24.1 | 0.00 | 0.00 | 0.00 | 57 | 1010.4 |
| 20260504200518 | 22 | 203 | 9.7 | 25.7 | 0.00 | 0.00 | 0.00 | 58 | 1010.4 |
| 20260504200017 | 22 | 180 | 12.9 | 30.6 | 0.00 | 0.00 | 0.00 | 57 | 1010.4 |
| 20260504195538 | 22 | 180 | 12.9 | 25.7 | 0.00 | 0.00 | 0.00 | 57 | 1010.4 |
| 20260504195018 | 22 | 203 | 11.3 | 33.8 | 0.00 | 0.00 | 0.00 | 58 | 1010.5 |
| 20260504194517 | 22 | 180 | 12.9 | 29.0 | 0.00 | 0.00 | 0.00 | 57 | 1010.4 |
| 20260504194018 | 22 | 180 | 11.3 | 27.4 | 0.00 | 0.00 | 0.00 | 59 | 1010.6 |
| 20260504193517 | 22 | 203 | 12.9 | 30.6 | 0.00 | 0.00 | 0.00 | 58 | 1010.7 |
| 20260504193017 | 22 | 203 | 11.3 | 22.5 | 0.00 | 0.00 | 0.00 | 59 | 1010.7 |
| 20260504192517 | 22 | 180 | 12.9 | 24.1 | 0.00 | 0.00 | 0.00 | 58 | 1010.8 |
| 20260504192017 | 22 | 225 | 12.9 | 27.4 | 0.00 | 0.00 | 0.00 | 58 | 1011.0 |
| 20260504191517 | 22 | 203 | 14.5 | 33.8 | 0.00 | 0.00 | 0.00 | 57 | 1011.0 |
| 20260504191058 | 22 | 180 | 11.3 | 27.4 | 0.00 | 0.00 | 0.00 | 58 | 1011.2 |
| 20260504190517 | 22 | 158 | 12.9 | 24.1 | 0.00 | 0.00 | 0.00 | 59 | 1011.1 |
| 20260504190017 | 22 | 203 | 11.3 | 29.0 | 0.00 | 0.00 | 0.00 | 59 | 1011.2 |
| 20260504185518 | 22 | 180 | 11.3 | 24.1 | 0.00 | 0.00 | 0.00 | 59 | 1011.1 |
| 20260504185018 | 22 | 180 | 11.3 | 25.7 | 0.00 | 0.00 | 0.00 | 60 | 1011.1 |
| 20260504184537 | 22 | 180 | 12.9 | 30.6 | 0.00 | 0.00 | 0.00 | 60 | 1011.2 |
| 20260504184017 | 22 | 203 | 12.9 | 27.4 | 0.00 | 0.00 | 0.00 | 60 | 1011.3 |
| 20260504183517 | 22 | 203 | 12.9 | 29.0 | 0.00 | 0.00 | 0.00 | 60 | 1011.3 |
| 20260504183017 | 22 | 203 | 12.9 | 27.4 | 0.00 | 0.00 | 0.00 | 59 | 1011.4 |
| 20260504182517 | 22 | 180 | 12.9 | 27.4 | 0.00 | 0.00 | 0.00 | 59 | 1011.5 |
| 20260504182018 | 22 | 203 | 9.7 | 22.5 | 0.00 | 0.00 | 0.00 | 60 | 1011.5 |
| 20260504181538 | 22 | 203 | 11.3 | 27.4 | 0.00 | 0.00 | 0.00 | 60 | 1011.6 |
| 20260504181017 | 22 | 203 | 12.9 | 27.4 | 0.00 | 0.00 | 0.00 | 60 | 1011.5 |
| 20260504180517 | 22 | 180 | 11.3 | 25.7 | 0.00 | 0.00 | 0.00 | 61 | 1011.5 |
| 20260504180019 | 22 | 203 | 9.7 | 22.5 | 0.00 | 0.00 | 0.00 | 61 | 1011.6 |
| 20260504175537 | 21 | 180 | 9.7 | 19.3 | 0.00 | 0.00 | 0.00 | 61 | 1011.7 |
| 20260504175017 | 21 | 180 | 11.3 | 24.1 | 0.00 | 0.00 | 0.00 | 62 | 1011.6 |
| 20260504174517 | 21 | 180 | 12.9 | 25.7 | 0.00 | 0.00 | 0.00 | 63 | 1011.7 |
| 20260504174018 | 21 | 180 | 14.5 | 29.0 | 0.00 | 0.00 | 0.00 | 61 | 1011.7 |
| 20260504173517 | 21 | 203 | 11.3 | 24.1 | 0.00 | 0.00 | 0.00 | 61 | 1011.8 |
| 20260504173017 | 21 | 203 | 9.7 | 20.9 | 0.00 | 0.00 | 0.00 | 62 | 1012.0 |
| 20260504172517 | 21 | 203 | 8.0 | 25.7 | 0.00 | 0.00 | 0.00 | 61 | 1012.2 |
| 20260504172017 | 21 | 180 | 11.3 | 24.1 | 0.00 | 0.00 | 0.00 | 60 | 1012.1 |
| 20260504171537 | 21 | 203 | 9.7 | 19.3 | 0.00 | 0.00 | 0.00 | 62 | 1012.2 |
| 20260504171017 | 21 | 203 | 11.3 | 24.1 | 0.00 | 0.00 | 0.00 | 61 | 1012.2 |
| 20260504170517 | 21 | 180 | 11.3 | 30.6 | 0.00 | 0.00 | 0.00 | 60 | 1012.3 |